createdAt,value
2018-06-05T00:00:10.586Z,100912.35
2018-06-05T00:02:45.391Z,100908.75
2018-06-05T00:05:20.149Z,100908.56
2018-06-05T00:07:54.900Z,100911.95
2018-06-05T00:10:30.137Z,100907.02
2018-06-05T00:13:05.253Z,100909.40
2018-06-05T00:15:39.667Z,100907.20
2018-06-05T00:18:14.503Z,100904.30
2018-06-05T00:20:49.128Z,100907.86
2018-06-05T00:23:23.957Z,100907.64
2018-06-05T00:25:59.285Z,100912.91
2018-06-05T00:28:34.182Z,100910.54
2018-06-05T00:31:09.208Z,100914.98
2018-06-05T00:33:43.492Z,100911.37
2018-06-05T00:36:18.411Z,100910.23
2018-06-05T00:38:53.255Z,100916.17
2018-06-05T00:41:28.614Z,100910.37
2018-06-05T00:44:04.439Z,100915.47
2018-06-05T00:46:39.497Z,100909.34
2018-06-05T00:49:14.430Z,100917.83
2018-06-05T00:52:00.615Z,100914.41
2018-06-05T00:54:35.355Z,100919.72
2018-06-05T00:57:10.111Z,100913.27
2018-06-05T00:59:44.971Z,100908.83
2018-06-05T01:02:20.396Z,100907.59
2018-06-05T01:04:55.233Z,100912.02
2018-06-05T01:07:29.616Z,100909.78
2018-06-05T01:10:05.197Z,100902.22
2018-06-05T01:12:40.159Z,100900.00
2018-06-05T01:15:15.060Z,100904.71
2018-06-05T01:17:49.565Z,100901.64
2018-06-05T01:20:24.496Z,100903.83
2018-06-05T01:22:59.369Z,100905.01
2018-06-05T01:25:34.669Z,100907.98
2018-06-05T01:28:09.374Z,100905.72
2018-06-05T01:30:44.533Z,100910.63
2018-06-05T01:33:19.074Z,100905.66
2018-06-05T01:35:54.306Z,100903.59
2018-06-05T01:38:28.789Z,100908.50
2018-06-05T01:41:03.839Z,100904.75
2018-06-05T01:43:38.544Z,100910.19
2018-06-05T01:46:13.323Z,100905.23
2018-06-05T01:48:48.575Z,100908.42
2018-06-05T01:51:23.111Z,100901.43
2018-06-05T01:53:58.110Z,100903.97
2018-06-05T01:56:33.042Z,100890.48
2018-06-05T01:59:07.914Z,100890.71
2018-06-05T02:01:42.753Z,100893.02
2018-06-05T02:04:17.473Z,100888.81
2018-06-05T02:06:52.381Z,100893.73
2018-06-05T02:09:27.115Z,100892.20
2018-06-05T02:12:02.463Z,100892.07
2018-06-05T02:14:37.286Z,100888.81
2018-06-05T02:17:12.281Z,100888.57
2018-06-05T02:19:47.025Z,100889.55
2018-06-05T02:22:22.270Z,100884.05
2018-06-05T02:24:56.999Z,100883.70
2018-06-05T02:27:31.905Z,100887.30
2018-06-05T02:30:07.076Z,100885.47
2018-06-05T02:32:41.698Z,100886.50
2018-06-05T02:35:16.314Z,100885.50
2018-06-05T02:37:51.231Z,100887.39
2018-06-05T02:40:26.462Z,100887.75
2018-06-05T02:43:01.433Z,100881.46
2018-06-05T02:45:36.501Z,100885.87
2018-06-05T02:48:11.261Z,100877.70
2018-06-05T02:50:46.642Z,100879.60
2018-06-05T02:53:21.575Z,100875.52
2018-06-05T02:55:57.008Z,100878.05
2018-06-05T02:58:31.994Z,100871.79
2018-06-05T03:01:07.117Z,100869.77
2018-06-05T03:03:41.753Z,100874.73
2018-06-05T03:06:16.540Z,100876.11
2018-06-05T03:08:51.929Z,100878.53
2018-06-05T03:11:26.814Z,100877.66
2018-06-05T03:14:01.762Z,100875.27
2018-06-05T03:16:36.569Z,100884.93
2018-06-05T03:19:11.540Z,100886.81
2018-06-05T03:21:46.826Z,100885.63
2018-06-05T03:24:21.453Z,100881.53
2018-06-05T03:26:56.233Z,100877.94
2018-06-05T03:29:31.362Z,100883.91
2018-06-05T03:32:06.211Z,100885.75
2018-06-05T03:34:40.936Z,100898.00
2018-06-05T03:37:15.610Z,100893.44
2018-06-05T03:39:50.459Z,100893.92
2018-06-05T03:42:24.997Z,100894.63
2018-06-05T03:44:59.712Z,100899.95
2018-06-05T03:47:34.882Z,100898.59
2018-06-05T03:50:09.726Z,100900.66
2018-06-05T03:52:44.268Z,100898.26
2018-06-05T03:55:18.852Z,100903.39
2018-06-05T03:57:53.124Z,100902.68
2018-06-05T04:00:28.821Z,100904.51
2018-06-05T04:03:03.284Z,100909.41
2018-06-05T04:05:38.637Z,100905.25
2018-06-05T04:08:13.614Z,100903.84
2018-06-05T04:10:48.599Z,100901.83
2018-06-05T04:13:24.225Z,100902.89
2018-06-05T04:15:58.729Z,100909.06
2018-06-05T04:18:33.758Z,100904.51
2018-06-05T04:21:09.192Z,100912.39
2018-06-05T04:23:44.550Z,100911.22
2018-06-05T04:26:19.489Z,100909.03
2018-06-05T04:28:54.252Z,100914.84
2018-06-05T04:31:29.430Z,100913.30
2018-06-05T04:34:04.431Z,100921.83
2018-06-05T04:36:39.772Z,100914.88
2018-06-05T04:39:14.832Z,100921.34
2018-06-05T04:41:49.678Z,100917.07
2018-06-05T04:44:24.489Z,100923.83
2018-06-05T04:46:59.484Z,100926.06
2018-06-05T04:49:34.830Z,100931.34
2018-06-05T04:52:10.100Z,100925.19
2018-06-05T04:54:45.595Z,100924.70
2018-06-05T04:57:20.878Z,100921.64
2018-06-05T04:59:55.717Z,100923.05
2018-06-05T05:02:30.411Z,100926.80
2018-06-05T05:05:05.769Z,100918.80
2018-06-05T05:07:40.689Z,100933.27
2018-06-05T05:10:15.933Z,100925.14
2018-06-05T05:12:50.953Z,100923.48
2018-06-05T05:15:25.922Z,100928.09
2018-06-05T05:18:00.945Z,100927.11
2018-06-05T05:20:35.415Z,100927.29
2018-06-05T05:23:10.289Z,100927.47
2018-06-05T05:25:44.895Z,100925.10
2018-06-05T05:28:19.848Z,100931.90
2018-06-05T05:30:54.699Z,100933.55
2018-06-05T05:33:29.034Z,100941.84
2018-06-05T05:36:04.149Z,100934.84
2018-06-05T05:38:38.921Z,100940.42
2018-06-05T05:41:14.174Z,100937.70
2018-06-05T05:43:49.167Z,100940.12
2018-06-05T05:46:24.246Z,100939.13
2018-06-05T05:48:58.845Z,100936.10
2018-06-05T05:51:34.148Z,100935.28
2018-06-05T05:54:08.694Z,100932.86
2018-06-05T05:56:43.853Z,100936.59
2018-06-05T05:59:18.341Z,100934.57
2018-06-05T06:01:53.677Z,100947.35
2018-06-05T06:04:28.465Z,100950.78
2018-06-05T06:07:03.362Z,100952.14
2018-06-05T06:09:37.778Z,100953.51
2018-06-05T06:12:12.590Z,100955.66
2018-06-05T06:14:47.449Z,100952.73
2018-06-05T06:17:22.190Z,100952.86
2018-06-05T06:19:57.285Z,100951.18
2018-06-05T06:22:32.729Z,100960.02
2018-06-05T06:25:07.967Z,100963.81
2018-06-05T06:27:42.787Z,100960.92
2018-06-05T06:30:17.885Z,100968.73
2018-06-05T06:32:52.905Z,100964.88
2018-06-05T06:35:27.773Z,100975.06
2018-06-05T06:38:02.727Z,100973.87
2018-06-05T06:40:38.175Z,100975.36
2018-06-05T06:43:13.134Z,100983.86
2018-06-05T06:45:47.845Z,100977.19
2018-06-05T06:48:23.243Z,100989.97
2018-06-05T06:50:58.081Z,100992.98
2018-06-05T06:53:33.289Z,100992.96
2018-06-05T06:56:07.784Z,100999.52
2018-06-05T06:58:42.745Z,100990.08
2018-06-05T07:01:17.990Z,100989.17
2018-06-05T07:03:53.204Z,100995.27
2018-06-05T07:06:28.822Z,100993.06
2018-06-05T07:09:03.399Z,100987.95
2018-06-05T07:11:37.905Z,100996.28
2018-06-05T07:14:13.050Z,100993.09
2018-06-05T07:16:47.650Z,100997.56
2018-06-05T07:19:22.797Z,101001.05
2018-06-05T07:21:57.504Z,100998.70
2018-06-05T07:24:32.217Z,101004.05
2018-06-05T07:27:07.081Z,101010.39
2018-06-05T07:29:41.598Z,101002.58
2018-06-05T07:32:16.466Z,101005.70
2018-06-05T07:34:51.138Z,101012.42
2018-06-05T07:37:25.441Z,101010.52
2018-06-05T07:40:00.103Z,101015.94
2018-06-05T07:42:34.945Z,101019.96
2018-06-05T07:45:10.434Z,101019.06
2018-06-05T07:47:45.878Z,101017.80
2018-06-05T07:50:21.154Z,101026.09
2018-06-05T07:52:55.838Z,101025.87
2018-06-05T07:55:31.305Z,101027.75
2018-06-05T07:58:06.597Z,101026.58
2018-06-05T08:00:41.542Z,101030.37
2018-06-05T08:03:16.149Z,101038.64
2018-06-05T08:05:50.890Z,101033.94
2018-06-05T08:08:25.681Z,101033.35
2018-06-05T08:11:00.510Z,101033.64
2018-06-05T08:13:35.038Z,101030.08
2018-06-05T08:16:10.222Z,101033.84
2018-06-05T08:18:45.660Z,101039.83
2018-06-05T08:21:20.325Z,101039.19
2018-06-05T08:23:55.641Z,101040.38
2018-06-05T08:27:07.485Z,101042.06
2018-06-05T08:29:42.668Z,101041.19
2018-06-05T08:32:17.828Z,101040.06
2018-06-05T08:34:53.097Z,101039.80
2018-06-05T08:37:28.185Z,101038.47
2018-06-05T08:40:03.320Z,101041.29
2018-06-05T08:42:37.574Z,101041.35
2018-06-05T08:45:12.130Z,101043.98
2018-06-05T08:47:47.397Z,101044.88
2018-06-05T08:50:22.912Z,101043.19
2018-06-05T08:52:57.817Z,101040.53
2018-06-05T08:55:33.186Z,101055.18
2018-06-05T08:58:08.434Z,101053.82
2018-06-05T09:00:42.953Z,101058.61
2018-06-05T09:03:17.538Z,101059.00
2018-06-05T09:05:52.122Z,101061.78
2018-06-05T09:08:27.318Z,101060.13
2018-06-05T09:11:02.309Z,101064.75
2018-06-05T09:13:37.489Z,101060.88
2018-06-05T09:16:12.860Z,101067.29
2018-06-05T09:18:47.692Z,101060.50
2018-06-05T09:21:22.813Z,101060.78
2018-06-05T09:23:57.501Z,101055.49
2018-06-05T09:26:32.318Z,101063.15
2018-06-05T09:29:07.438Z,101058.42
2018-06-05T09:31:42.065Z,101060.92
2018-06-05T09:34:16.936Z,101062.00
2018-06-05T09:36:52.040Z,101059.16
2018-06-05T09:39:26.995Z,101063.31
2018-06-05T09:42:01.504Z,101058.58
2018-06-05T09:44:37.293Z,101059.52
2018-06-05T09:47:12.597Z,101058.20
2018-06-05T09:49:47.226Z,101052.64
2018-06-05T09:52:23.985Z,101057.30
2018-06-05T09:54:59.070Z,101056.20
2018-06-05T09:57:34.192Z,101065.98
2018-06-05T10:00:09.561Z,101061.09
2018-06-05T10:02:44.405Z,101058.53
2018-06-05T10:05:19.505Z,101054.27
2018-06-05T10:07:54.838Z,101058.19
2018-06-05T10:10:29.639Z,101054.66
2018-06-05T10:13:04.414Z,101055.50
2018-06-05T10:15:39.609Z,101058.40
2018-06-05T10:18:14.150Z,101058.75
2018-06-05T10:20:48.378Z,101056.34
2018-06-05T10:23:22.921Z,101059.10
2018-06-05T10:25:57.538Z,101062.08
2018-06-05T10:28:32.469Z,101064.16
2018-06-05T10:31:07.814Z,101052.27
2018-06-05T10:33:42.334Z,101053.70
2018-06-05T10:36:17.790Z,101059.45
2018-06-05T10:38:52.710Z,101055.33
2018-06-05T10:41:27.946Z,101060.45
2018-06-05T10:44:02.996Z,101054.66
2018-06-05T10:46:37.753Z,101047.37
2018-06-05T10:49:12.853Z,101047.75
2018-06-05T10:51:47.705Z,101048.61
2018-06-05T10:54:22.485Z,101051.34
2018-06-05T10:56:57.197Z,101050.34
2018-06-05T10:59:32.022Z,101045.38
2018-06-05T11:02:06.825Z,101038.38
2018-06-05T11:04:41.328Z,101038.38
2018-06-05T11:07:15.922Z,101033.25
2018-06-05T11:09:50.961Z,101034.27
2018-06-05T11:12:25.768Z,101030.02
2018-06-05T11:15:00.267Z,101034.09
2018-06-05T11:17:35.457Z,101030.67
2018-06-05T11:20:10.454Z,101028.91
2018-06-05T11:22:45.455Z,101034.53
2018-06-05T11:25:20.165Z,101032.04
2018-06-05T11:27:54.989Z,101034.42
2018-06-05T11:30:30.438Z,101036.02
2018-06-05T11:33:05.586Z,101021.69
2018-06-05T11:35:40.196Z,101022.66
2018-06-05T11:38:15.360Z,101021.17
2018-06-05T11:40:50.510Z,101008.09
2018-06-05T11:43:25.356Z,100996.36
2018-06-05T11:46:00.376Z,101003.98
2018-06-05T11:48:35.725Z,101003.50
2018-06-05T11:51:10.362Z,101007.94
2018-06-05T11:53:45.721Z,100998.94
2018-06-05T11:56:20.889Z,100999.95
2018-06-05T11:58:55.607Z,100990.84
2018-06-05T12:01:30.553Z,100992.55
2018-06-05T12:04:05.284Z,100997.33
2018-06-05T12:06:39.799Z,100989.94
2018-06-05T12:09:14.603Z,100986.84
2018-06-05T12:11:49.606Z,100982.48
2018-06-05T12:14:24.485Z,100983.72
2018-06-05T12:17:00.150Z,100993.35
2018-06-05T12:19:34.786Z,100987.62
2018-06-05T12:22:10.290Z,100987.18
2018-06-05T12:24:45.372Z,100982.98
2018-06-05T12:27:20.034Z,100981.37
2018-06-05T12:29:55.061Z,100977.98
2018-06-05T12:32:29.784Z,100977.12
2018-06-05T12:35:05.109Z,100973.81
2018-06-05T12:37:39.740Z,100968.60
2018-06-05T12:40:14.852Z,100968.41
2018-06-05T12:42:50.431Z,100966.92
2018-06-05T12:45:25.797Z,100962.79
2018-06-05T12:48:00.800Z,100960.86
2018-06-05T12:50:35.924Z,100962.44
2018-06-05T12:53:11.030Z,100963.67
2018-06-05T12:55:45.918Z,100958.29
2018-06-05T12:58:20.583Z,100949.51
2018-06-05T13:00:55.829Z,100946.89
2018-06-05T13:03:31.321Z,100950.88
2018-06-05T13:06:06.145Z,100956.41
2018-06-05T13:08:41.089Z,100952.77
2018-06-05T13:11:16.366Z,100947.88
2018-06-05T13:13:51.022Z,100950.13
2018-06-05T13:16:26.317Z,100940.98
2018-06-05T13:19:01.237Z,100940.98
2018-06-05T13:21:36.202Z,100943.72
2018-06-05T13:24:11.327Z,100934.23
2018-06-05T13:26:46.325Z,100946.51
2018-06-05T13:29:21.324Z,100941.03
2018-06-05T13:31:55.821Z,100938.69
2018-06-05T13:34:30.565Z,100932.89
2018-06-05T13:37:05.692Z,100934.70
2018-06-05T13:39:40.837Z,100929.91
2018-06-05T13:42:15.457Z,100927.65
2018-06-05T13:44:50.152Z,100938.02
2018-06-05T13:47:24.691Z,100928.85
2018-06-05T13:49:59.710Z,100926.25
2018-06-05T13:52:34.594Z,100918.95
2018-06-05T13:55:10.162Z,100921.87
2018-06-05T13:57:45.120Z,100914.69
2018-06-05T14:00:20.022Z,100921.44
2018-06-05T14:02:54.609Z,100915.22
2018-06-05T14:05:29.830Z,100911.37
2018-06-05T14:08:04.766Z,100906.78
2018-06-05T14:10:40.038Z,100908.34
2018-06-05T14:13:14.885Z,100898.85
2018-06-05T14:15:49.909Z,100902.64
2018-06-05T14:18:25.530Z,100897.19
2018-06-05T14:21:00.018Z,100903.12
2018-06-05T14:23:35.226Z,100903.65
2018-06-05T14:26:09.991Z,100896.56
2018-06-05T14:28:44.645Z,100901.37
2018-06-05T14:31:19.737Z,100896.77
2018-06-05T14:33:54.670Z,100889.95
2018-06-05T14:36:29.688Z,100892.50
2018-06-05T14:39:08.037Z,100892.42
2018-06-05T14:41:43.279Z,100888.27
2018-06-05T14:44:18.373Z,100891.17
2018-06-05T14:46:54.388Z,100886.19
2018-06-05T14:49:29.405Z,100870.02
2018-06-05T14:52:04.171Z,100878.86
2018-06-05T14:54:38.878Z,100876.84
2018-06-05T14:57:13.122Z,100872.39
2018-06-05T14:59:48.186Z,100870.95
2018-06-05T15:02:23.622Z,100879.31
2018-06-05T15:04:58.339Z,100875.92
2018-06-05T15:07:33.249Z,100875.55
2018-06-05T15:10:08.201Z,100870.70
2018-06-05T15:12:43.246Z,100871.95
2018-06-05T15:15:18.177Z,100869.45
2018-06-05T15:17:52.526Z,100868.94
2018-06-05T15:20:27.561Z,100866.23
2018-06-05T15:23:03.002Z,100864.01
2018-06-05T15:25:37.784Z,100861.25
2018-06-05T15:28:13.227Z,100863.55
2018-06-05T15:30:48.141Z,100864.08
2018-06-05T15:33:22.953Z,100858.77
2018-06-05T15:35:57.900Z,100852.25
2018-06-05T15:38:33.414Z,100858.80
2018-06-05T15:41:08.177Z,100857.99
2018-06-05T15:43:42.966Z,100856.12
2018-06-05T15:46:17.905Z,100854.02
2018-06-05T15:48:52.734Z,100851.84
2018-06-05T15:51:27.218Z,100852.31
2018-06-05T15:54:01.927Z,100849.41
2018-06-05T15:56:36.831Z,100848.57
2018-06-05T15:59:12.185Z,100853.08
2018-06-05T16:01:47.070Z,100841.22
2018-06-05T16:04:21.967Z,100851.59
2018-06-05T16:06:57.102Z,100848.50
2018-06-05T16:09:32.206Z,100844.70
2018-06-05T16:12:07.319Z,100844.62
2018-06-05T16:14:41.775Z,100842.31
2018-06-05T16:17:17.128Z,100840.88
2018-06-05T16:19:52.017Z,100840.12
2018-06-05T16:22:27.298Z,100838.80
2018-06-05T16:25:02.100Z,100844.67
2018-06-05T16:27:37.885Z,100836.91
2018-06-05T16:30:12.802Z,100829.52
2018-06-05T16:32:47.379Z,100837.39
2018-06-05T16:35:22.539Z,100833.09
2018-06-05T16:37:57.242Z,100834.02
2018-06-05T16:40:32.354Z,100838.96
2018-06-05T16:43:06.863Z,100836.13
2018-06-05T16:45:41.473Z,100833.91
2018-06-05T16:48:16.904Z,100841.73
2018-06-05T16:50:51.658Z,100841.63
2018-06-05T16:53:26.890Z,100835.32
2018-06-05T16:56:02.079Z,100828.23
2018-06-05T16:58:37.526Z,100835.05
2018-06-05T17:01:13.067Z,100834.31
2018-06-05T17:03:47.409Z,100830.16
2018-06-05T17:06:22.550Z,100827.91
2018-06-05T17:08:57.075Z,100831.95
2018-06-05T17:11:32.324Z,100829.30
2018-06-05T17:14:07.598Z,100832.30
2018-06-05T17:16:42.293Z,100831.66
2018-06-05T17:19:17.442Z,100831.56
2018-06-05T17:21:52.838Z,100832.02
2018-06-05T17:24:27.663Z,100826.53
2018-06-05T17:27:02.561Z,100827.46
2018-06-05T17:29:37.640Z,100830.86
2018-06-05T17:32:12.157Z,100824.28
2018-06-05T17:34:47.353Z,100833.27
2018-06-05T17:37:22.474Z,100822.45
2018-06-05T17:39:57.217Z,100826.50
2018-06-05T17:42:32.158Z,100826.30
2018-06-05T17:45:07.308Z,100827.45
2018-06-05T17:47:41.966Z,100830.11
2018-06-05T17:50:16.642Z,100833.53
2018-06-05T17:52:52.005Z,100836.60
2018-06-05T17:55:26.953Z,100838.84
2018-06-05T17:58:01.877Z,100835.33
2018-06-05T18:00:36.598Z,100840.42
2018-06-05T18:03:11.637Z,100832.97
2018-06-05T18:05:46.638Z,100834.42
2018-06-05T18:08:22.004Z,100834.61
2018-06-05T18:10:57.054Z,100832.63
2018-06-05T18:13:32.138Z,100835.56
2018-06-05T18:16:07.657Z,100834.08
2018-06-05T18:18:41.921Z,100832.60
2018-06-05T18:21:17.374Z,100831.84
2018-06-05T18:23:52.253Z,100838.53
2018-06-05T18:26:26.965Z,100832.99
2018-06-05T18:29:02.190Z,100832.12
2018-06-05T18:31:36.689Z,100828.08
2018-06-05T18:34:11.549Z,100833.45
2018-06-05T18:36:46.676Z,100826.02
2018-06-05T18:39:21.590Z,100832.66
2018-06-05T18:41:56.285Z,100836.42
2018-06-05T18:44:31.077Z,100839.47
2018-06-05T18:47:05.916Z,100836.34
2018-06-05T18:49:41.154Z,100839.05
2018-06-05T18:52:15.758Z,100844.55
2018-06-05T18:54:50.775Z,100851.06
2018-06-05T18:57:25.670Z,100844.23
2018-06-05T19:00:00.582Z,100849.35
2018-06-05T19:02:35.474Z,100846.25
2018-06-05T19:05:10.686Z,100847.75
2018-06-05T19:07:45.378Z,100859.75
2018-06-05T19:10:20.353Z,100852.23
2018-06-05T19:12:55.707Z,100859.14
2018-06-05T19:15:30.235Z,100855.03
2018-06-05T19:18:04.827Z,100863.63
2018-06-05T19:20:39.745Z,100864.80
2018-06-05T19:23:14.848Z,100860.95
2018-06-05T19:25:49.697Z,100865.95
2018-06-05T19:28:24.506Z,100862.12
2018-06-05T19:30:59.497Z,100863.81
2018-06-05T19:33:34.312Z,100872.05
2018-06-05T19:36:09.634Z,100875.41
2018-06-05T19:38:44.823Z,100872.98
2018-06-05T19:41:19.645Z,100873.56
2018-06-05T19:43:54.385Z,100880.86
2018-06-05T19:46:29.684Z,100880.80
2018-06-05T19:49:04.349Z,100882.06
2018-06-05T19:51:39.623Z,100888.48
2018-06-05T19:54:14.701Z,100889.62
2018-06-05T19:56:49.949Z,100896.57
2018-06-05T19:59:24.979Z,100901.98
2018-06-05T20:01:59.809Z,100905.14
2018-06-05T20:04:34.680Z,100903.52
2018-06-05T20:07:09.822Z,100902.87
2018-06-05T20:09:44.765Z,100906.33
2018-06-05T20:12:19.418Z,100912.56
2018-06-05T20:14:54.257Z,100916.41
2018-06-05T20:17:29.510Z,100925.37
2018-06-05T20:20:04.458Z,100920.95
2018-06-05T20:22:39.610Z,100928.53
2018-06-05T20:25:14.549Z,100925.66
2018-06-05T20:27:49.644Z,100924.69
2018-06-05T20:30:24.324Z,100930.57
2018-06-05T20:32:59.343Z,100927.55
2018-06-05T20:35:34.686Z,100924.86
2018-06-05T20:38:09.528Z,100928.98
2018-06-05T20:40:44.417Z,100925.61
2018-06-05T20:43:18.906Z,100928.39
2018-06-05T20:45:54.126Z,100935.61
2018-06-05T20:48:28.910Z,100929.67
2018-06-05T20:51:03.746Z,100937.39
2018-06-05T20:53:38.566Z,100942.03
2018-06-05T20:56:13.210Z,100939.13
2018-06-05T20:58:48.035Z,100947.22
2018-06-05T21:01:22.851Z,100949.80
2018-06-05T21:03:57.889Z,100955.80
2018-06-05T21:06:33.161Z,100959.05
2018-06-05T21:09:07.638Z,100953.59
2018-06-05T21:11:42.928Z,100954.26
2018-06-05T21:14:17.437Z,100960.61
2018-06-05T21:16:52.673Z,100954.28
2018-06-05T21:19:27.302Z,100956.34
2018-06-05T21:22:01.923Z,100959.09
2018-06-05T21:24:37.057Z,100964.90
2018-06-05T21:27:11.790Z,100971.72
2018-06-05T21:29:46.588Z,100967.45
2018-06-05T21:32:21.241Z,100977.03
2018-06-05T21:34:56.201Z,100976.52
2018-06-05T21:37:31.016Z,100981.47
2018-06-05T21:40:05.822Z,100985.16
2018-06-05T21:42:40.962Z,100981.92
2018-06-05T21:45:15.268Z,100982.42
2018-06-05T21:47:50.342Z,100983.94
2018-06-05T21:50:25.450Z,100985.81
2018-06-05T21:52:59.994Z,100988.69
2018-06-05T21:55:35.227Z,100993.11
2018-06-05T21:58:09.440Z,100993.28
2018-06-05T22:00:44.406Z,100995.64
2018-06-05T22:03:19.552Z,101003.48
2018-06-05T22:05:54.112Z,101001.10
2018-06-05T22:08:28.600Z,101004.50
2018-06-05T22:11:03.371Z,101003.98
2018-06-05T22:13:38.054Z,101007.20
2018-06-05T22:16:13.385Z,101006.50
2018-06-05T22:18:47.933Z,100997.27
2018-06-05T22:21:22.382Z,101003.88
2018-06-05T22:23:57.191Z,100998.38
2018-06-05T22:26:31.994Z,100995.75
2018-06-05T22:29:06.752Z,100996.41
2018-06-05T22:31:41.822Z,101004.23
2018-06-05T22:34:16.764Z,100992.41
2018-06-05T22:36:51.404Z,100986.41
2018-06-05T22:39:26.055Z,100987.91
2018-06-05T22:42:01.111Z,100995.73
2018-06-05T22:44:35.786Z,100992.95
2018-06-05T22:47:10.862Z,100987.98
2018-06-05T22:49:45.910Z,100992.72
2018-06-05T22:52:20.226Z,100990.47
2018-06-05T22:54:55.728Z,100984.13
2018-06-05T22:57:31.050Z,100989.70
2018-06-05T23:00:06.256Z,100990.35
2018-06-05T23:02:41.467Z,100991.66
2018-06-05T23:05:16.359Z,100986.55
2018-06-05T23:07:51.525Z,100992.64
2018-06-05T23:13:08.731Z,100994.91
2018-06-05T23:15:43.255Z,100997.58
2018-06-05T23:18:18.314Z,100999.92
2018-06-05T23:20:52.977Z,100998.32
2018-06-05T23:23:27.877Z,100991.79
2018-06-05T23:26:02.966Z,100999.42
2018-06-05T23:28:37.906Z,100997.32
2018-06-05T23:31:12.396Z,100996.42
2018-06-05T23:33:47.653Z,100996.36
2018-06-05T23:36:21.983Z,100998.34
2018-06-05T23:38:56.893Z,100991.81
2018-06-05T23:41:32.017Z,100999.20
2018-06-05T23:44:06.586Z,100995.26
2018-06-05T23:46:41.381Z,100997.91
2018-06-05T23:49:16.306Z,100994.61
2018-06-05T23:51:55.442Z,100996.06
2018-06-05T23:54:30.204Z,100993.41
2018-06-05T23:57:04.738Z,100995.38
2018-06-05T23:59:39.885Z,100988.16
